createdAt,value
2019-04-11T00:00:00.000Z,98310
2019-04-11T00:05:00.000Z,98328
2019-04-11T00:10:00.000Z,98319
2019-04-11T00:15:00.000Z,98326
2019-04-11T00:20:00.000Z,98333
2019-04-11T00:25:00.000Z,98325
2019-04-11T00:30:00.000Z,98321
2019-04-11T00:35:00.000Z,98317
2019-04-11T00:40:00.000Z,98320
2019-04-11T00:45:00.000Z,98316
2019-04-11T00:50:00.000Z,98315
2019-04-11T00:55:00.000Z,98317
2019-04-11T01:00:00.000Z,98314
2019-04-11T01:05:00.000Z,98316
2019-04-11T01:10:00.000Z,98314
2019-04-11T01:15:00.000Z,98316
2019-04-11T01:20:00.000Z,98322
2019-04-11T01:25:00.000Z,98327
2019-04-11T01:30:00.000Z,98323
2019-04-11T01:35:00.000Z,98325
2019-04-11T01:40:00.000Z,98324
2019-04-11T01:45:00.000Z,98324
2019-04-11T01:50:00.000Z,98321
2019-04-11T01:55:00.000Z,98326
2019-04-11T02:00:00.000Z,98325
2019-04-11T02:05:00.000Z,98338
2019-04-11T02:10:00.000Z,98352
2019-04-11T02:15:00.000Z,98349
2019-04-11T02:20:00.000Z,98335
2019-04-11T02:25:00.000Z,98342
2019-04-11T02:30:00.000Z,98350
2019-04-11T02:35:00.000Z,98343
2019-04-11T02:40:00.000Z,98341
2019-04-11T02:45:00.000Z,98340
2019-04-11T02:51:00.000Z,98334
2019-04-11T02:56:00.000Z,98340
2019-04-11T03:01:00.000Z,98352
2019-04-11T03:06:00.000Z,98348
2019-04-11T03:11:00.000Z,98355
2019-04-11T03:16:00.000Z,98365
2019-04-11T03:22:00.000Z,98352
2019-04-11T03:27:00.000Z,98363
2019-04-11T03:38:00.000Z,98367
2019-04-11T03:44:00.000Z,98360
2019-04-11T03:49:00.000Z,98366
2019-04-11T03:55:00.000Z,98377
2019-04-11T04:00:00.000Z,98382
2019-04-11T04:05:00.000Z,98382
2019-04-11T04:10:00.000Z,98388
2019-04-11T04:15:00.000Z,98378
2019-04-11T04:20:00.000Z,98394
2019-04-11T04:25:00.000Z,98403
2019-04-11T04:31:00.000Z,98416
2019-04-11T04:36:00.000Z,98419
2019-04-11T04:41:00.000Z,98427
2019-04-11T04:46:00.000Z,98426
2019-04-11T04:52:00.000Z,98449
2019-04-11T04:57:00.000Z,98445
2019-04-11T05:02:00.000Z,98443
2019-04-11T05:07:00.000Z,98450
2019-04-11T05:12:00.000Z,98458
2019-04-11T05:17:00.000Z,98462
2019-04-11T05:22:00.000Z,98462
2019-04-11T05:27:00.000Z,98460
2019-04-11T05:32:00.000Z,98466
2019-04-11T05:37:00.000Z,98475
2019-04-11T05:42:00.000Z,98468
2019-04-11T05:47:00.000Z,98480
2019-04-11T05:52:00.000Z,98484
2019-04-11T05:57:00.000Z,98488
2019-04-11T06:02:00.000Z,98481
2019-04-11T06:07:00.000Z,98487
2019-04-11T06:12:00.000Z,98483
2019-04-11T06:17:00.000Z,98485
2019-04-11T06:22:00.000Z,98478
2019-04-11T06:27:00.000Z,98490
2019-04-11T06:32:00.000Z,98479
2019-04-11T06:37:00.000Z,98500
2019-04-11T06:42:00.000Z,98494
2019-04-11T06:48:00.000Z,98498
2019-04-11T06:53:00.000Z,98496
2019-04-11T06:58:00.000Z,98508
2019-04-11T07:03:00.000Z,98498
2019-04-11T07:08:00.000Z,98503
2019-04-11T07:13:00.000Z,98515
2019-04-11T07:18:00.000Z,98514
2019-04-11T07:23:00.000Z,98524
2019-04-11T07:28:00.000Z,98513
2019-04-11T07:33:00.000Z,98518
2019-04-11T07:38:00.000Z,98530
2019-04-11T07:43:00.000Z,98523
2019-04-11T07:48:00.000Z,98535
2019-04-11T07:53:00.000Z,98550
2019-04-11T07:58:00.000Z,98553
2019-04-11T08:03:00.000Z,98552
2019-04-11T08:08:00.000Z,98560
2019-04-11T08:13:00.000Z,98564
2019-04-11T08:18:00.000Z,98570
2019-04-11T08:23:00.000Z,98565
2019-04-11T08:28:00.000Z,98568
2019-04-11T08:34:00.000Z,98570
2019-04-11T08:39:00.000Z,98558
2019-04-11T08:44:00.000Z,98565
2019-04-11T08:49:00.000Z,98567
2019-04-11T08:54:00.000Z,98569
2019-04-11T08:59:00.000Z,98575
2019-04-11T09:04:00.000Z,98576
2019-04-11T09:09:00.000Z,98564
2019-04-11T09:14:00.000Z,98576
2019-04-11T09:19:00.000Z,98575
2019-04-11T09:24:00.000Z,98577
2019-04-11T09:29:00.000Z,98570
2019-04-11T09:34:00.000Z,98574
2019-04-11T09:39:00.000Z,98584
2019-04-11T09:44:00.000Z,98557
2019-04-11T09:49:00.000Z,98556
2019-04-11T09:54:00.000Z,98555
2019-04-11T09:59:00.000Z,98557
2019-04-11T10:04:00.000Z,98563
2019-04-11T10:09:00.000Z,98559
2019-04-11T10:14:00.000Z,98552
2019-04-11T10:19:00.000Z,98563
2019-04-11T10:24:00.000Z,98563
2019-04-11T10:29:00.000Z,98566
2019-04-11T10:34:00.000Z,98566
2019-04-11T10:39:00.000Z,98571
2019-04-11T10:44:00.000Z,98576
2019-04-11T10:49:00.000Z,98570
2019-04-11T10:54:00.000Z,98577
2019-04-11T11:00:00.000Z,98578
2019-04-11T11:05:00.000Z,98582
2019-04-11T11:10:00.000Z,98593
2019-04-11T11:15:00.000Z,98579
2019-04-11T11:20:00.000Z,98588
2019-04-11T11:25:00.000Z,98581
2019-04-11T11:30:00.000Z,98597
2019-04-11T11:35:00.000Z,98585
2019-04-11T11:40:00.000Z,98601
2019-04-11T11:45:00.000Z,98607
2019-04-11T11:50:00.000Z,98613
2019-04-11T11:55:00.000Z,98613
2019-04-11T12:00:00.000Z,98617
2019-04-11T12:06:00.000Z,98619
2019-04-11T12:11:00.000Z,98607
2019-04-11T12:16:00.000Z,98614
2019-04-11T12:21:00.000Z,98614
2019-04-11T12:26:00.000Z,98629
2019-04-11T12:31:00.000Z,98615
2019-04-11T12:36:00.000Z,98631
2019-04-11T12:41:00.000Z,98624
2019-04-11T12:46:00.000Z,98623
2019-04-11T12:51:00.000Z,98623
2019-04-11T12:56:00.000Z,98612
2019-04-11T13:01:00.000Z,98626
2019-04-11T13:06:00.000Z,98620
2019-04-11T13:11:00.000Z,98618
2019-04-11T13:16:00.000Z,98622
2019-04-11T13:21:00.000Z,98638
2019-04-11T13:26:00.000Z,98621
2019-04-11T13:31:00.000Z,98642
2019-04-11T13:36:00.000Z,98637
2019-04-11T13:41:00.000Z,98630
2019-04-11T13:46:00.000Z,98629
2019-04-11T13:51:00.000Z,98638
2019-04-11T13:56:00.000Z,98639
2019-04-11T14:01:00.000Z,98630
2019-04-11T14:06:00.000Z,98632
2019-04-11T14:11:00.000Z,98630
2019-04-11T14:16:00.000Z,98622
2019-04-11T14:21:00.000Z,98623
2019-04-11T14:26:00.000Z,98633
2019-04-11T14:31:00.000Z,98641
2019-04-11T14:36:00.000Z,98648
2019-04-11T14:41:00.000Z,98644
2019-04-11T14:46:00.000Z,98636
2019-04-11T14:51:00.000Z,98630
2019-04-11T14:56:00.000Z,98643
2019-04-11T15:02:00.000Z,98638
2019-04-11T15:07:00.000Z,98645
2019-04-11T15:12:00.000Z,98644
2019-04-11T15:17:00.000Z,98641
2019-04-11T15:22:00.000Z,98647
2019-04-11T15:27:00.000Z,98660
2019-04-11T15:32:00.000Z,98663
2019-04-11T15:37:00.000Z,98664
2019-04-11T15:42:00.000Z,98669
2019-04-11T15:47:00.000Z,98676
2019-04-11T15:52:00.000Z,98667
2019-04-11T15:57:00.000Z,98693
2019-04-11T16:02:00.000Z,98691
2019-04-11T16:07:00.000Z,98694
2019-04-11T16:12:00.000Z,98699
2019-04-11T16:17:00.000Z,98698
2019-04-11T16:22:00.000Z,98708
2019-04-11T16:27:00.000Z,98701
2019-04-11T16:32:00.000Z,98709
2019-04-11T16:37:00.000Z,98701
2019-04-11T16:42:00.000Z,98709
2019-04-11T16:47:00.000Z,98721
2019-04-11T16:52:00.000Z,98740
2019-04-11T16:57:00.000Z,98737
2019-04-11T17:02:00.000Z,98745
2019-04-11T17:07:00.000Z,98745
2019-04-11T17:12:00.000Z,98755
2019-04-11T17:17:00.000Z,98770
2019-04-11T17:22:00.000Z,98777
2019-04-11T17:27:00.000Z,98763
2019-04-11T17:32:00.000Z,98766
2019-04-11T17:37:00.000Z,98785
2019-04-11T17:42:00.000Z,98780
2019-04-11T17:47:00.000Z,98794
2019-04-11T17:52:00.000Z,98815
2019-04-11T17:57:00.000Z,98814
2019-04-11T18:02:00.000Z,98826
2019-04-11T18:07:00.000Z,98827
2019-04-11T18:12:00.000Z,98846
2019-04-11T18:17:00.000Z,98834
2019-04-11T18:22:00.000Z,98844
2019-04-11T18:27:00.000Z,98856
2019-04-11T18:32:00.000Z,98860
2019-04-11T18:37:00.000Z,98849
2019-04-11T18:42:00.000Z,98852
2019-04-11T18:47:00.000Z,98870
2019-04-11T18:52:00.000Z,98878
2019-04-11T18:58:00.000Z,98864
2019-04-11T19:03:00.000Z,98861
2019-04-11T19:08:00.000Z,98868
2019-04-11T19:13:00.000Z,98876
2019-04-11T19:18:00.000Z,98880
2019-04-11T19:23:00.000Z,98879
2019-04-11T19:28:00.000Z,98885
2019-04-11T19:33:00.000Z,98884
2019-04-11T19:38:00.000Z,98887
2019-04-11T19:43:00.000Z,98878
2019-04-11T19:48:00.000Z,98868
2019-04-11T19:53:00.000Z,98869
2019-04-11T19:58:00.000Z,98879
2019-04-11T20:03:00.000Z,98871
2019-04-11T20:08:00.000Z,98880
2019-04-11T20:13:00.000Z,98877
2019-04-11T20:18:00.000Z,98872
2019-04-11T20:23:00.000Z,98872
2019-04-11T20:28:00.000Z,98855
2019-04-11T20:33:00.000Z,98874
2019-04-11T20:38:00.000Z,98861
2019-04-11T20:43:00.000Z,98857
2019-04-11T20:48:00.000Z,98867
2019-04-11T20:53:00.000Z,98866
2019-04-11T20:58:00.000Z,98862
2019-04-11T21:03:00.000Z,98874
2019-04-11T21:08:00.000Z,98885
2019-04-11T21:13:00.000Z,98883
2019-04-11T21:18:00.000Z,98890
2019-04-11T21:23:00.000Z,98888
2019-04-11T21:28:00.000Z,98893
2019-04-11T21:33:00.000Z,98887
2019-04-11T21:38:00.000Z,98903
2019-04-11T21:43:00.000Z,98901
2019-04-11T21:48:00.000Z,98900
2019-04-11T21:53:00.000Z,98900
2019-04-11T21:58:00.000Z,98901
2019-04-11T22:03:00.000Z,98899
2019-04-11T22:08:00.000Z,98889
2019-04-11T22:13:00.000Z,98909
2019-04-11T22:18:00.000Z,98910
2019-04-11T22:24:00.000Z,98903
2019-04-11T22:29:00.000Z,98916
2019-04-11T22:34:00.000Z,98911
2019-04-11T22:39:00.000Z,98913
2019-04-11T22:44:00.000Z,98914
2019-04-11T22:49:00.000Z,98908
2019-04-11T22:54:00.000Z,98910
2019-04-11T22:59:00.000Z,98911
2019-04-11T23:04:00.000Z,98913
2019-04-11T23:09:00.000Z,98902
2019-04-11T23:14:00.000Z,98909
2019-04-11T23:19:00.000Z,98908
2019-04-11T23:24:00.000Z,98913
2019-04-11T23:29:00.000Z,98911
2019-04-11T23:34:00.000Z,98907
2019-04-11T23:39:00.000Z,98912
2019-04-11T23:44:00.000Z,98902
2019-04-11T23:49:00.000Z,98904
2019-04-11T23:54:00.000Z,98914
2019-04-11T23:59:00.000Z,98909
